Martha Arendzee — UAIX — position and weather

sailwx.info

Track history (hours):
 
Tides and Currents Weather Stations Pressure Air Temp Water Temp Dewpoint Dewpoint Depression Visibility Wind Speed Wind Dir Waves Ship Positions

Martha Arendzee

Last reported at 2017-Nov-19 06:20 UTC. Time now 2017-Nov-22 10:56 UTC.
Position N 70°13' E 031°59'.

Length 62 m; draft 4.8 m.

Type: Fishing. MMSI: 273216200.

Date/timePositionNaut miles runAvg speedWind from/ knotsBaromVisibWave heightAir tempDewpointWater temp
2017-Nov-19 06:20N 70°13' E 031°59'0 0.7
2017-Nov-19 06:00N 70°13' E 031°58'0 0.1
2017-Nov-19 01:48N 70°13' E 031°59'1 3.6
2017-Nov-19 01:30N 70°13' E 031°56'1 2.8
2017-Nov-19 01:00N 70°12' E 031°52'73 2.4
2017-Nov-17 18:17N 69°03' E 033°05'2 6.4
2017-Nov-17 18:00N 69°02' E 033°03'3 6.6
2017-Nov-17 17:31N 68°58' E 033°02'0 0.9
2017-Nov-17 16:59N 68°58' E 033°03'0 0.0
2017-Nov-17 16:29N 68°58' E 033°03'0 0.0
2017-Nov-17 15:58N 68°58' E 033°03'0 0.0
2017-Nov-17 15:28N 68°58' E 033°03'0 0.0
2017-Nov-17 14:54N 68°58' E 033°03'0 0.0
2017-Nov-17 14:28N 68°58' E 033°03'0 0.0
2017-Nov-17 08:20N 68°58' E 033°03'0 0.0
2017-Nov-17 07:56N 68°58' E 033°03'0 0.0
2017-Nov-17 07:29N 68°58' E 033°03'0 0.0
2017-Nov-17 06:57N 68°58' E 033°03'0 0.0
2017-Nov-17 06:25N 68°58' E 033°03'0 0.0
2017-Nov-17 06:00N 68°58' E 033°03'0 0.0
2017-Nov-17 05:29N 68°58' E 033°03'0 0.0
2017-Nov-17 04:59N 68°58' E 033°03'0 0.0
2017-Nov-17 04:27N 68°58' E 033°03'0 0.0
2017-Nov-17 03:55N 68°58' E 033°03'0 0.0
2017-Nov-17 03:21N 68°58' E 033°03'0 0.0
2017-Nov-17 03:00N 68°58' E 033°03'0 0.0
2017-Nov-17 02:26N 68°58' E 033°03'0 0.0
2017-Nov-17 01:54N 68°58' E 033°03'0 0.0
2017-Nov-17 01:30N 68°58' E 033°03'0 0.0
2017-Nov-17 01:00N 68°58' E 033°03'0 0.0
2017-Nov-17 00:28N 68°58' E 033°03'0 0.0
2017-Nov-16 23:55N 68°58' E 033°03'0 0.0
2017-Nov-16 23:29N 68°58' E 033°03'0 0.0
2017-Nov-16 22:59N 68°58' E 033°03'0 0.0
2017-Nov-16 22:28N 68°58' E 033°03'0 0.0
2017-Nov-16 21:56N 68°58' E 033°03'0 0.0
2017-Nov-16 21:30N 68°58' E 033°03'0 0.0
2017-Nov-16 20:58N 68°58' E 033°03'0 0.0
2017-Nov-16 20:28N 68°58' E 033°03'0 0.0
2017-Nov-16 19:53N 68°58' E 033°03'0 0.0
2017-Nov-16 19:31N 68°58' E 033°03'0 0.0
2017-Nov-16 18:59N 68°58' E 033°03'0 0.0
2017-Nov-16 17:29N 68°58' E 033°03'0 0.0
2017-Nov-16 16:55N 68°58' E 033°03'0 0.0
2017-Nov-16 16:25N 68°58' E 033°03'0 0.0
2017-Nov-16 16:00N 68°58' E 033°03'0 0.0
2017-Nov-16 15:29N 68°58' E 033°03'0 0.0
2017-Nov-16 15:00N 68°58' E 033°03'0 0.0
2017-Nov-16 14:30N 68°58' E 033°03'0 0.0
2017-Nov-16 14:00N 68°58' E 033°03'0 0.0
2017-Nov-16 13:29N 68°58' E 033°03'0 0.0
2017-Nov-16 12:56N 68°58' E 033°03'0 0.0
2017-Nov-16 12:30N 68°58' E 033°03'0 0.0
2017-Nov-16 11:58N 68°58' E 033°03'0 0.0
2017-Nov-16 11:29N 68°58' E 033°03'0 0.0
2017-Nov-16 10:56N 68°58' E 033°03'0 0.0
2017-Nov-16 10:25N 68°58' E 033°03'0 0.0
2017-Nov-16 09:59N 68°58' E 033°03'0 0.0
2017-Nov-16 09:28N 68°58' E 033°03'0 0.0
2017-Nov-16 08:57N 68°58' E 033°03'0 0.0
2017-Nov-16 08:30N 68°58' E 033°03'0 0.0
2017-Nov-16 08:00N 68°58' E 033°03'0 0.0
2017-Nov-16 07:29N 68°58' E 033°03'0 0.0
2017-Nov-16 06:58N 68°58' E 033°03'0 0.0
2017-Nov-16 06:30N 68°58' E 033°03'0 0.0
2017-Nov-16 06:00N 68°58' E 033°03'0 0.0
2017-Nov-16 05:29N 68°58' E 033°03'0 0.0
2017-Nov-16 04:57N 68°58' E 033°03'0 0.0
2017-Nov-16 04:30N 68°58' E 033°03'0 0.0
2017-Nov-16 03:59N 68°58' E 033°03'0 0.0
2017-Nov-16 03:30N 68°58' E 033°03'0 0.0
2017-Nov-16 02:57N 68°58' E 033°03'0 0.0
2017-Nov-16 02:26N 68°58' E 033°03'0 0.0
2017-Nov-16 01:59N 68°58' E 033°03'0 0.0
2017-Nov-16 01:27N 68°58' E 033°03'0 0.0
2017-Nov-16 00:57N 68°58' E 033°03'0 0.0
2017-Nov-16 00:30N 68°58' E 033°03'0 0.0
2017-Nov-16 00:00N 68°58' E 033°03'0 0.0
2017-Nov-15 23:29N 68°58' E 033°03'0 0.1
2017-Nov-15 22:57N 68°58' E 033°03'0 0.1
2017-Nov-15 22:25N 68°58' E 033°03'0 0.0
2017-Nov-15 22:00N 68°58' E 033°03'0 0.0
2017-Nov-15 21:29N 68°58' E 033°03'0 0.0
2017-Nov-15 20:56N 68°58' E 033°03'0 0.0
2017-Nov-15 20:30N 68°58' E 033°03'0 0.0
2017-Nov-15 20:00N 68°58' E 033°03'0 0.0
2017-Nov-15 19:29N 68°58' E 033°03'0 0.0
2017-Nov-15 18:57N 68°58' E 033°03'0 0.0
2017-Nov-15 18:30N 68°58' E 033°03'0 0.0
2017-Nov-15 18:00N 68°58' E 033°03'0 0.0
2017-Nov-15 17:29N 68°58' E 033°03'0 0.0
2017-Nov-15 16:57N 68°58' E 033°03'0 0.0
2017-Nov-15 16:30N 68°58' E 033°03'0 0.0
2017-Nov-15 16:00N 68°58' E 033°03'0 0.0
2017-Nov-15 15:29N 68°58' E 033°03'0 0.0
2017-Nov-15 14:58N 68°58' E 033°03'0 0.0
2017-Nov-15 14:24N 68°58' E 033°03'0 0.0
2017-Nov-15 13:56N 68°58' E 033°03'0 0.0
2017-Nov-15 13:30N 68°58' E 033°03'0 0.0
2017-Nov-15 12:59N 68°58' E 033°03'0 0.0
2017-Nov-15 12:29N 68°58' E 033°03'0 0.0
2017-Nov-15 11:57N 68°58' E 033°03'0 0.0
2017-Nov-15 11:30N 68°58' E 033°03'0 0.0
2017-Nov-15 10:56N 68°58' E 033°03'0 0.0
2017-Nov-15 10:29N 68°58' E 033°03'0 0.0
2017-Nov-15 09:58N 68°58' E 033°03'0 0.0
2017-Nov-15 09:29N 68°58' E 033°03'0 0.0
2017-Nov-15 09:00N 68°58' E 033°03'0 0.0
2017-Nov-15 08:28N 68°58' E 033°03'0 0.0
2017-Nov-15 07:55N 68°58' E 033°03'0 0.0
2017-Nov-15 07:30N 68°58' E 033°03'0 0.0
2017-Nov-15 07:00N 68°58' E 033°03'0 0.0
2017-Nov-15 06:25N 68°58' E 033°03'0 0.0
2017-Nov-15 05:59N 68°58' E 033°03'0 0.0
2017-Nov-15 05:29N 68°58' E 033°03'0 0.0
2017-Nov-15 04:57N 68°58' E 033°03'0 0.0
2017-Nov-15 04:29N 68°58' E 033°03'0 0.0
2017-Nov-15 04:00N 68°58' E 033°03'0 0.0
2017-Nov-15 03:28N 68°58' E 033°03'0 0.0
2017-Nov-15 02:58N 68°58' E 033°03'0 0.0
2017-Nov-15 02:23N 68°58' E 033°03'0 0.0
2017-Nov-15 01:59N 68°58' E 033°03'0 0.0
2017-Nov-15 01:29N 68°58' E 033°03'0 0.0
2017-Nov-15 00:57N 68°58' E 033°03'0 0.0
2017-Nov-15 00:28N 68°58' E 033°03'0 0.0
2017-Nov-15 00:00N 68°58' E 033°03'0 0.0
2017-Nov-14 23:30N 68°58' E 033°03'0 0.0
2017-Nov-14 23:00N 68°58' E 033°03'0 0.0
2017-Nov-14 22:30N 68°58' E 033°03'0 0.0
2017-Nov-14 21:58N 68°58' E 033°03'0 0.0
2017-Nov-14 21:30N 68°58' E 033°03'0 0.0
2017-Nov-14 21:00N 68°58' E 033°03'0 0.0
2017-Nov-14 20:25N 68°58' E 033°03'0 0.0
2017-Nov-14 19:58N 68°58' E 033°03'0 0.0
2017-Nov-14 19:27N 68°58' E 033°03'0 0.0
2017-Nov-14 18:59N 68°58' E 033°03'0 0.0
2017-Nov-14 18:28N 68°58' E 033°03'0 0.0
2017-Nov-14 17:58N 68°58' E 033°03'0 0.0
2017-Nov-14 17:29N 68°58' E 033°03'0 0.0
2017-Nov-14 17:00N 68°58' E 033°03'0 0.0
2017-Nov-14 16:24N 68°58' E 033°03'0 0.0
2017-Nov-14 15:58N 68°58' E 033°03'0 0.0
2017-Nov-14 15:28N 68°58' E 033°03'0 0.0
2017-Nov-14 14:58N 68°58' E 033°03'0 0.0
2017-Nov-14 14:24N 68°58' E 033°03'0 0.0
2017-Nov-14 13:59N 68°58' E 033°03'0 0.0
2017-Nov-14 13:29N 68°58' E 033°03'0 0.0
2017-Nov-14 13:00N 68°58' E 033°03'0 0.0
2017-Nov-14 12:28N 68°58' E 033°03'0 0.0
2017-Nov-14 11:59N 68°58' E 033°03'0 0.0
2017-Nov-14 11:29N 68°58' E 033°03'0 0.0
2017-Nov-14 10:58N 68°58' E 033°03'0 0.0
2017-Nov-14 10:28N 68°58' E 033°03'0 0.0
2017-Nov-14 10:00N 68°58' E 033°03'0 0.0
2017-Nov-14 09:29N 68°58' E 033°03'0 0.0
2017-Nov-14 09:00N 68°58' E 033°03'0 0.0
2017-Nov-14 08:30N 68°58' E 033°03'0 0.0
2017-Nov-14 07:59N 68°58' E 033°03'0 0.0
2017-Nov-14 07:28N 68°58' E 033°03'0 0.0
2017-Nov-14 06:55N 68°58' E 033°03'0 0.0
2017-Nov-14 06:30N 68°58' E 033°03'0 0.0
2017-Nov-14 06:00N 68°58' E 033°03'0 0.0
2017-Nov-14 05:30N 68°58' E 033°03'0 0.0
2017-Nov-14 04:59N 68°58' E 033°03'0 0.0
2017-Nov-14 04:30N 68°58' E 033°03'0 0.0
2017-Nov-14 03:58N 68°58' E 033°03'0 0.0
2017-Nov-14 03:28N 68°58' E 033°03'0 0.0
2017-Nov-14 02:59N 68°58' E 033°03'0 0.0
2017-Nov-14 02:29N 68°58' E 033°03'0 0.0
2017-Nov-14 01:59N 68°58' E 033°03'0 0.0
2017-Nov-14 01:25N 68°58' E 033°03'0 0.0
2017-Nov-14 00:59N 68°58' E 033°03'0 0.0
2017-Nov-14 00:29N 68°58' E 033°03'0 0.0
2017-Nov-14 00:00N 68°58' E 033°03'0 0.0
2017-Nov-13 23:29N 68°58' E 033°03'0 0.0
2017-Nov-13 22:59N 68°58' E 033°03'0 0.0
2017-Nov-13 22:29N 68°58' E 033°03'0 0.0
2017-Nov-13 22:00N 68°58' E 033°03'0 0.0
2017-Nov-13 01:56N 68°58' E 033°03'0 0.0
2017-Nov-13 01:28N 68°58' E 033°03'0 0.0
2017-Nov-13 00:58N 68°58' E 033°03'0 0.0
2017-Nov-13 00:28N 68°58' E 033°03'0 0.0
2017-Nov-13 00:00N 68°58' E 033°03'0 0.0
2017-Nov-12 23:29N 68°58' E 033°03'0 0.0
2017-Nov-12 22:59N 68°58' E 033°03'0 0.0
2017-Nov-12 22:29N 68°58' E 033°03'0 0.0
2017-Nov-12 21:59N 68°58' E 033°03'0 0.0
2017-Nov-12 21:27N 68°58' E 033°03'0 0.0
2017-Nov-12 20:59N 68°58' E 033°03'0 0.0
2017-Nov-12 20:27N 68°58' E 033°03'0 0.0
2017-Nov-12 19:59N 68°58' E 033°03'0 0.0
2017-Nov-12 19:26N 68°58' E 033°03'0 0.0
2017-Nov-12 18:59N 68°58' E 033°03'0 0.0
2017-Nov-12 18:28N 68°58' E 033°03'0 0.0
2017-Nov-12 17:59N 68°58' E 033°03'0 0.0
2017-Nov-12 17:29N 68°58' E 033°03'0 0.0
2017-Nov-12 17:00N 68°58' E 033°03'0 0.0
2017-Nov-12 16:29N 68°58' E 033°03'0 0.0
2017-Nov-12 15:59N 68°58' E 033°03'0 0.0
2017-Nov-12 15:29N 68°58' E 033°03'0 0.0
2017-Nov-12 14:55N 68°58' E 033°03'0 0.0
2017-Nov-12 14:28N 68°58' E 033°03'0 0.0
2017-Nov-12 13:53N 68°58' E 033°03'0 0.0
2017-Nov-12 13:30N 68°58' E 033°03'0 0.0
2017-Nov-12 12:59N 68°58' E 033°03'0 0.0
2017-Nov-12 12:19N 68°58' E 033°03'0 0.0
2017-Nov-12 11:58N 68°58' E 033°03'0 0.0
2017-Nov-12 11:28N 68°58' E 033°03'0 0.0
2017-Nov-12 10:59N 68°58' E 033°03'0 0.0
2017-Nov-12 10:30N 68°58' E 033°03'0 0.0
2017-Nov-12 09:59N 68°58' E 033°03'0 0.0
2017-Nov-12 09:28N 68°58' E 033°03'0 0.0
2017-Nov-12 08:59N 68°58' E 033°03'0 0.0
2017-Nov-12 08:29N 68°58' E 033°03'0 0.0
2017-Nov-12 07:57N 68°58' E 033°03'0 0.0
2017-Nov-12 07:29N 68°58' E 033°03'0 0.0
2017-Nov-12 06:58N 68°58' E 033°03'0 0.0
2017-Nov-12 06:30N 68°58' E 033°03'0 0.0
2017-Nov-12 05:58N 68°58' E 033°03'0 0.0
2017-Nov-12 05:26N 68°58' E 033°03'0 0.0
2017-Nov-12 04:57N 68°58' E 033°03'0 0.0
2017-Nov-12 04:27N 68°58' E 033°03'0 0.0
2017-Nov-12 03:58N 68°58' E 033°03'0 0.0
2017-Nov-12 03:29N 68°58' E 033°03'0 0.0
2017-Nov-12 03:00N 68°58' E 033°03'0 0.0
2017-Nov-12 02:26N 68°58' E 033°03'0 0.0
2017-Nov-12 02:00N 68°58' E 033°03'0 0.0
2017-Nov-12 01:28N 68°58' E 033°03'0 0.0
2017-Nov-12 01:00N 68°58' E 033°03'0 0.0
2017-Nov-12 00:23N 68°58' E 033°03'0 0.0
2017-Nov-11 23:59N 68°58' E 033°03'0 0.0
2017-Nov-11 23:28N 68°58' E 033°03'0 0.0
2017-Nov-11 22:55N 68°58' E 033°03'0 0.0
2017-Nov-11 22:23N 68°58' E 033°03'0 0.0
2017-Nov-11 21:57N 68°58' E 033°03'0 0.0
2017-Nov-11 21:27N 68°58' E 033°03'0 0.0
2017-Nov-11 20:58N 68°58' E 033°03'0 0.0
2017-Nov-11 20:30N 68°58' E 033°03'0 0.0
2017-Nov-11 19:59N 68°58' E 033°03'0 0.0
2017-Nov-11 19:29N 68°58' E 033°03'0 0.0
2017-Nov-11 19:00N 68°58' E 033°03'0 0.0
2017-Nov-11 18:28N 68°58' E 033°03'0 0.0
2017-Nov-11 17:59N 68°58' E 033°03'0 0.0
2017-Nov-11 17:30N 68°58' E 033°03'0 0.0
2017-Nov-11 16:56N 68°58' E 033°03'0 0.0
2017-Nov-11 16:24N 68°58' E 033°03'0 0.0
2017-Nov-11 16:00N 68°58' E 033°03'0 0.0
2017-Nov-11 15:30N 68°58' E 033°03'0 0.0
2017-Nov-11 14:59N 68°58' E 033°03'0 0.0
2017-Nov-11 14:26N 68°58' E 033°03'0 0.0
2017-Nov-11 13:55N 68°58' E 033°03'0 0.0
2017-Nov-11 13:30N 68°58' E 033°03'0 0.0
2017-Nov-11 12:59N 68°58' E 033°03'0 0.0
2017-Nov-11 12:29N 68°58' E 033°03'0 0.0
2017-Nov-11 11:59N 68°58' E 033°03'0 0.0
2017-Nov-11 11:28N 68°58' E 033°03'0 0.0
2017-Nov-11 10:58N 68°58' E 033°03'0 0.0
2017-Nov-11 10:29N 68°58' E 033°03'0 0.0
2017-Nov-11 09:58N 68°58' E 033°03'0 0.0
2017-Nov-11 09:26N 68°58' E 033°03'0 0.0
2017-Nov-11 09:00N 68°58' E 033°03'0 0.0
2017-Nov-11 08:25N 68°58' E 033°03'0 0.0
2017-Nov-11 07:58N 68°58' E 033°03'0 0.0
2017-Nov-11 07:28N 68°58' E 033°03'0 0.0
2017-Nov-11 07:00N 68°58' E 033°03'0 0.0
2017-Nov-11 06:25N 68°58' E 033°03'0 0.0
2017-Nov-11 05:58N 68°58' E 033°03'0 0.0
2017-Nov-11 05:27N 68°58' E 033°03'0 0.0
2017-Nov-11 05:00N 68°58' E 033°03'0 0.0
2017-Nov-11 04:28N 68°58' E 033°03'0 0.0
2017-Nov-11 04:00N 68°58' E 033°03'0 0.0
2017-Nov-11 03:29N 68°58' E 033°03'0 0.0
2017-Nov-11 02:59N 68°58' E 033°03'0 0.0
2017-Nov-11 02:30N 68°58' E 033°03'0 0.0
2017-Nov-11 01:53N 68°58' E 033°03'0 0.0
2017-Nov-11 01:29N 68°58' E 033°03'0 0.0
2017-Nov-11 00:56N 68°58' E 033°03'0 0.0
2017-Nov-11 00:29N 68°58' E 033°03'0 0.0
2017-Nov-10 23:58N 68°58' E 033°03'0 0.0
2017-Nov-10 23:27N 68°58' E 033°03'0 0.0
2017-Nov-10 22:57N 68°58' E 033°03'0 0.0
2017-Nov-10 22:28N 68°58' E 033°03'0 0.0
2017-Nov-10 21:59N 68°58' E 033°03'0 0.0
2017-Nov-10 21:29N 68°58' E 033°03'0 0.0
2017-Nov-10 20:54N 68°58' E 033°03'0 0.0
2017-Nov-10 20:30N 68°58' E 033°03'0 0.0
2017-Nov-10 19:59N 68°58' E 033°03'0 0.0
2017-Nov-10 19:27N 68°58' E 033°03'0 0.0
2017-Nov-10 18:55N 68°58' E 033°03'0 0.0
2017-Nov-10 18:30N 68°58' E 033°03'0 0.0
2017-Nov-10 18:00N 68°58' E 033°03'0 0.0
2017-Nov-10 17:26N 68°58' E 033°03'0 0.0
2017-Nov-10 16:58N 68°58' E 033°03'0 0.0
2017-Nov-10 16:29N 68°58' E 033°03'0 0.0
2017-Nov-10 16:00N 68°58' E 033°03'0 0.0
2017-Nov-10 15:26N 68°58' E 033°03'0 0.0
2017-Nov-10 14:53N 68°58' E 033°03'0 0.0
2017-Nov-10 14:29N 68°58' E 033°03'0 0.0
2017-Nov-10 13:59N 68°58' E 033°03'0 0.0
2017-Nov-10 13:21N 68°58' E 033°03'0 0.0
2017-Nov-10 12:59N 68°58' E 033°03'0 0.0
2017-Nov-10 12:25N 68°58' E 033°03'0 0.0
2017-Nov-10 11:59N 68°58' E 033°03'0 0.0
2017-Nov-10 11:28N 68°58' E 033°03'0 0.0
2017-Nov-10 10:58N 68°58' E 033°03'0 0.0
2017-Nov-10 10:25N 68°58' E 033°03'0 0.0
2017-Nov-10 09:59N 68°58' E 033°03'0 0.0
2017-Nov-10 09:30N 68°58' E 033°03'0 0.0
2017-Nov-10 08:59N 68°58' E 033°03'0 0.0
2017-Nov-10 08:29N 68°58' E 033°03'0 0.0
2017-Nov-10 07:59N 68°58' E 033°03'0 0.0
2017-Nov-10 07:30N 68°58' E 033°03'0 0.0
2017-Nov-10 06:58N 68°58' E 033°03'0 0.0
2017-Nov-10 06:26N 68°58' E 033°03'0 0.0
2017-Nov-10 06:00N 68°58' E 033°03'0 0.0
2017-Nov-10 05:30N 68°58' E 033°03'0 0.0
2017-Nov-10 05:00N 68°58' E 033°03'0 0.0
2017-Nov-10 04:27N 68°58' E 033°03'0 0.0
2017-Nov-10 04:00N 68°58' E 033°03'0 0.0
2017-Nov-10 03:28N 68°58' E 033°03'0 0.0
2017-Nov-10 02:59N 68°58' E 033°03'0 0.0
2017-Nov-10 02:29N 68°58' E 033°03'0 0.0
2017-Nov-10 01:58N 68°58' E 033°03'0 0.0
2017-Nov-10 01:30N 68°58' E 033°03'0 0.0
2017-Nov-09 22:13N 68°58' E 033°03'0 0.0
2017-Nov-09 17:45N 68°58' E 033°03'0 0.0
2017-Nov-09 15:42N 68°58' E 033°03'0 0.0
2017-Nov-09 13:25N 68°58' E 033°03'0 0.0
2017-Nov-09 11:46N 68°58' E 033°03'0 0.0
2017-Nov-09 11:25N 68°58' E 033°03'0 0.0
2017-Nov-09 08:49N 68°58' E 033°03'0 0.0
2017-Nov-09 08:27N 68°58' E 033°03'0 0.2
2017-Nov-09 07:59N 68°58' E 033°03'0 1.0
2017-Nov-09 07:31N 68°58' E 033°02'1 2.6
2017-Nov-09 07:00N 68°56' E 033°01'  
Track history (hours):
 
Tides and Currents Weather Stations Pressure Air Temp Water Temp Dewpoint Dewpoint Depression Visibility Wind Speed Wind Dir Waves Ship Positions

Martha Arendzee

Last reported at 2017-Nov-19 06:20 UTC. Time now 2017-Nov-22 10:56 UTC.
Position N 70°13' E 031°59'.

Length 62 m; draft 4.8 m.

Type: Fishing. MMSI: 273216200.

Date/timePositionNaut miles runAvg speedWind from/ knotsBaromVisibWave heightAir tempDewpointWater temp
2017-Nov-19 06:20N 70°13' E 031°59'0 0.7
2017-Nov-19 06:00N 70°13' E 031°58'0 0.1
2017-Nov-19 01:48N 70°13' E 031°59'1 3.6
2017-Nov-19 01:30N 70°13' E 031°56'1 2.8
2017-Nov-19 01:00N 70°12' E 031°52'73 2.4
2017-Nov-17 18:17N 69°03' E 033°05'2 6.4
2017-Nov-17 18:00N 69°02' E 033°03'3 6.6
2017-Nov-17 17:31N 68°58' E 033°02'0 0.9
2017-Nov-17 16:59N 68°58' E 033°03'0 0.0
2017-Nov-17 16:29N 68°58' E 033°03'0 0.0
2017-Nov-17 15:58N 68°58' E 033°03'0 0.0
2017-Nov-17 15:28N 68°58' E 033°03'0 0.0
2017-Nov-17 14:54N 68°58' E 033°03'0 0.0
2017-Nov-17 14:28N 68°58' E 033°03'0 0.0
2017-Nov-17 08:20N 68°58' E 033°03'0 0.0
2017-Nov-17 07:56N 68°58' E 033°03'0 0.0
2017-Nov-17 07:29N 68°58' E 033°03'0 0.0
2017-Nov-17 06:57N 68°58' E 033°03'0 0.0
2017-Nov-17 06:25N 68°58' E 033°03'0 0.0
2017-Nov-17 06:00N 68°58' E 033°03'0 0.0
2017-Nov-17 05:29N 68°58' E 033°03'0 0.0
2017-Nov-17 04:59N 68°58' E 033°03'0 0.0
2017-Nov-17 04:27N 68°58' E 033°03'0 0.0
2017-Nov-17 03:55N 68°58' E 033°03'0 0.0
2017-Nov-17 03:21N 68°58' E 033°03'0 0.0
2017-Nov-17 03:00N 68°58' E 033°03'0 0.0
2017-Nov-17 02:26N 68°58' E 033°03'0 0.0
2017-Nov-17 01:54N 68°58' E 033°03'0 0.0
2017-Nov-17 01:30N 68°58' E 033°03'0 0.0
2017-Nov-17 01:00N 68°58' E 033°03'0 0.0
2017-Nov-17 00:28N 68°58' E 033°03'0 0.0
2017-Nov-16 23:55N 68°58' E 033°03'0 0.0
2017-Nov-16 23:29N 68°58' E 033°03'0 0.0
2017-Nov-16 22:59N 68°58' E 033°03'0 0.0
2017-Nov-16 22:28N 68°58' E 033°03'0 0.0
2017-Nov-16 21:56N 68°58' E 033°03'0 0.0
2017-Nov-16 21:30N 68°58' E 033°03'0 0.0
2017-Nov-16 20:58N 68°58' E 033°03'0 0.0
2017-Nov-16 20:28N 68°58' E 033°03'0 0.0
2017-Nov-16 19:53N 68°58' E 033°03'0 0.0
2017-Nov-16 19:31N 68°58' E 033°03'0 0.0
2017-Nov-16 18:59N 68°58' E 033°03'0 0.0
2017-Nov-16 17:29N 68°58' E 033°03'0 0.0
2017-Nov-16 16:55N 68°58' E 033°03'0 0.0
2017-Nov-16 16:25N 68°58' E 033°03'0 0.0
2017-Nov-16 16:00N 68°58' E 033°03'0 0.0
2017-Nov-16 15:29N 68°58' E 033°03'0 0.0
2017-Nov-16 15:00N 68°58' E 033°03'0 0.0
2017-Nov-16 14:30N 68°58' E 033°03'0 0.0
2017-Nov-16 14:00N 68°58' E 033°03'0 0.0
2017-Nov-16 13:29N 68°58' E 033°03'0 0.0
2017-Nov-16 12:56N 68°58' E 033°03'0 0.0
2017-Nov-16 12:30N 68°58' E 033°03'0 0.0
2017-Nov-16 11:58N 68°58' E 033°03'0 0.0
2017-Nov-16 11:29N 68°58' E 033°03'0 0.0
2017-Nov-16 10:56N 68°58' E 033°03'0 0.0
2017-Nov-16 10:25N 68°58' E 033°03'0 0.0
2017-Nov-16 09:59N 68°58' E 033°03'0 0.0
2017-Nov-16 09:28N 68°58' E 033°03'0 0.0
2017-Nov-16 08:57N 68°58' E 033°03'0 0.0
2017-Nov-16 08:30N 68°58' E 033°03'0 0.0
2017-Nov-16 08:00N 68°58' E 033°03'0 0.0
2017-Nov-16 07:29N 68°58' E 033°03'0 0.0
2017-Nov-16 06:58N 68°58' E 033°03'0 0.0
2017-Nov-16 06:30N 68°58' E 033°03'0 0.0
2017-Nov-16 06:00N 68°58' E 033°03'0 0.0
2017-Nov-16 05:29N 68°58' E 033°03'0 0.0
2017-Nov-16 04:57N 68°58' E 033°03'0 0.0
2017-Nov-16 04:30N 68°58' E 033°03'0 0.0
2017-Nov-16 03:59N 68°58' E 033°03'0 0.0
2017-Nov-16 03:30N 68°58' E 033°03'0 0.0
2017-Nov-16 02:57N 68°58' E 033°03'0 0.0
2017-Nov-16 02:26N 68°58' E 033°03'0 0.0
2017-Nov-16 01:59N 68°58' E 033°03'0 0.0
2017-Nov-16 01:27N 68°58' E 033°03'0 0.0
2017-Nov-16 00:57N 68°58' E 033°03'0 0.0
2017-Nov-16 00:30N 68°58' E 033°03'0 0.0
2017-Nov-16 00:00N 68°58' E 033°03'0 0.0
2017-Nov-15 23:29N 68°58' E 033°03'0 0.1
2017-Nov-15 22:57N 68°58' E 033°03'0 0.1
2017-Nov-15 22:25N 68°58' E 033°03'0 0.0
2017-Nov-15 22:00N 68°58' E 033°03'0 0.0
2017-Nov-15 21:29N 68°58' E 033°03'0 0.0
2017-Nov-15 20:56N 68°58' E 033°03'0 0.0
2017-Nov-15 20:30N 68°58' E 033°03'0 0.0
2017-Nov-15 20:00N 68°58' E 033°03'0 0.0
2017-Nov-15 19:29N 68°58' E 033°03'0 0.0
2017-Nov-15 18:57N 68°58' E 033°03'0 0.0
2017-Nov-15 18:30N 68°58' E 033°03'0 0.0
2017-Nov-15 18:00N 68°58' E 033°03'0 0.0
2017-Nov-15 17:29N 68°58' E 033°03'0 0.0
2017-Nov-15 16:57N 68°58' E 033°03'0 0.0
2017-Nov-15 16:30N 68°58' E 033°03'0 0.0
2017-Nov-15 16:00N 68°58' E 033°03'0 0.0
2017-Nov-15 15:29N 68°58' E 033°03'0 0.0
2017-Nov-15 14:58N 68°58' E 033°03'0 0.0
2017-Nov-15 14:24N 68°58' E 033°03'0 0.0
2017-Nov-15 13:56N 68°58' E 033°03'0 0.0
2017-Nov-15 13:30N 68°58' E 033°03'0 0.0
2017-Nov-15 12:59N 68°58' E 033°03'0 0.0
2017-Nov-15 12:29N 68°58' E 033°03'0 0.0
2017-Nov-15 11:57N 68°58' E 033°03'0 0.0
2017-Nov-15 11:30N 68°58' E 033°03'0 0.0
2017-Nov-15 10:56N 68°58' E 033°03'0 0.0
2017-Nov-15 10:29N 68°58' E 033°03'0 0.0
2017-Nov-15 09:58N 68°58' E 033°03'0 0.0
2017-Nov-15 09:29N 68°58' E 033°03'0 0.0
2017-Nov-15 09:00N 68°58' E 033°03'0 0.0
2017-Nov-15 08:28N 68°58' E 033°03'0 0.0
2017-Nov-15 07:55N 68°58' E 033°03'0 0.0
2017-Nov-15 07:30N 68°58' E 033°03'0 0.0
2017-Nov-15 07:00N 68°58' E 033°03'0 0.0
2017-Nov-15 06:25N 68°58' E 033°03'0 0.0
2017-Nov-15 05:59N 68°58' E 033°03'0 0.0
2017-Nov-15 05:29N 68°58' E 033°03'0 0.0
2017-Nov-15 04:57N 68°58' E 033°03'0 0.0
2017-Nov-15 04:29N 68°58' E 033°03'0 0.0
2017-Nov-15 04:00N 68°58' E 033°03'0 0.0
2017-Nov-15 03:28N 68°58' E 033°03'0 0.0
2017-Nov-15 02:58N 68°58' E 033°03'0 0.0
2017-Nov-15 02:23N 68°58' E 033°03'0 0.0
2017-Nov-15 01:59N 68°58' E 033°03'0 0.0
2017-Nov-15 01:29N 68°58' E 033°03'0 0.0
2017-Nov-15 00:57N 68°58' E 033°03'0 0.0
2017-Nov-15 00:28N 68°58' E 033°03'0 0.0
2017-Nov-15 00:00N 68°58' E 033°03'0 0.0
2017-Nov-14 23:30N 68°58' E 033°03'0 0.0
2017-Nov-14 23:00N 68°58' E 033°03'0 0.0
2017-Nov-14 22:30N 68°58' E 033°03'0 0.0
2017-Nov-14 21:58N 68°58' E 033°03'0 0.0
2017-Nov-14 21:30N 68°58' E 033°03'0 0.0
2017-Nov-14 21:00N 68°58' E 033°03'0 0.0
2017-Nov-14 20:25N 68°58' E 033°03'0 0.0
2017-Nov-14 19:58N 68°58' E 033°03'0 0.0
2017-Nov-14 19:27N 68°58' E 033°03'0 0.0
2017-Nov-14 18:59N 68°58' E 033°03'0 0.0
2017-Nov-14 18:28N 68°58' E 033°03'0 0.0
2017-Nov-14 17:58N 68°58' E 033°03'0 0.0
2017-Nov-14 17:29N 68°58' E 033°03'0 0.0
2017-Nov-14 17:00N 68°58' E 033°03'0 0.0
2017-Nov-14 16:24N 68°58' E 033°03'0 0.0
2017-Nov-14 15:58N 68°58' E 033°03'0 0.0
2017-Nov-14 15:28N 68°58' E 033°03'0 0.0
2017-Nov-14 14:58N 68°58' E 033°03'0 0.0
2017-Nov-14 14:24N 68°58' E 033°03'0 0.0
2017-Nov-14 13:59N 68°58' E 033°03'0 0.0
2017-Nov-14 13:29N 68°58' E 033°03'0 0.0
2017-Nov-14 13:00N 68°58' E 033°03'0 0.0
2017-Nov-14 12:28N 68°58' E 033°03'0 0.0
2017-Nov-14 11:59N 68°58' E 033°03'0 0.0
2017-Nov-14 11:29N 68°58' E 033°03'0 0.0
2017-Nov-14 10:58N 68°58' E 033°03'0 0.0
2017-Nov-14 10:28N 68°58' E 033°03'0 0.0
2017-Nov-14 10:00N 68°58' E 033°03'0 0.0
2017-Nov-14 09:29N 68°58' E 033°03'0 0.0
2017-Nov-14 09:00N 68°58' E 033°03'0 0.0
2017-Nov-14 08:30N 68°58' E 033°03'0 0.0
2017-Nov-14 07:59N 68°58' E 033°03'0 0.0
2017-Nov-14 07:28N 68°58' E 033°03'0 0.0
2017-Nov-14 06:55N 68°58' E 033°03'0 0.0
2017-Nov-14 06:30N 68°58' E 033°03'0 0.0
2017-Nov-14 06:00N 68°58' E 033°03'0 0.0
2017-Nov-14 05:30N 68°58' E 033°03'0 0.0
2017-Nov-14 04:59N 68°58' E 033°03'0 0.0
2017-Nov-14 04:30N 68°58' E 033°03'0 0.0
2017-Nov-14 03:58N 68°58' E 033°03'0 0.0
2017-Nov-14 03:28N 68°58' E 033°03'0 0.0
2017-Nov-14 02:59N 68°58' E 033°03'0 0.0
2017-Nov-14 02:29N 68°58' E 033°03'0 0.0
2017-Nov-14 01:59N 68°58' E 033°03'0 0.0
2017-Nov-14 01:25N 68°58' E 033°03'0 0.0
2017-Nov-14 00:59N 68°58' E 033°03'0 0.0
2017-Nov-14 00:29N 68°58' E 033°03'0 0.0
2017-Nov-14 00:00N 68°58' E 033°03'0 0.0
2017-Nov-13 23:29N 68°58' E 033°03'0 0.0
2017-Nov-13 22:59N 68°58' E 033°03'0 0.0
2017-Nov-13 22:29N 68°58' E 033°03'0 0.0
2017-Nov-13 22:00N 68°58' E 033°03'0 0.0
2017-Nov-13 01:56N 68°58' E 033°03'0 0.0
2017-Nov-13 01:28N 68°58' E 033°03'0 0.0
2017-Nov-13 00:58N 68°58' E 033°03'0 0.0
2017-Nov-13 00:28N 68°58' E 033°03'0 0.0
2017-Nov-13 00:00N 68°58' E 033°03'0 0.0
2017-Nov-12 23:29N 68°58' E 033°03'0 0.0
2017-Nov-12 22:59N 68°58' E 033°03'0 0.0
2017-Nov-12 22:29N 68°58' E 033°03'0 0.0
2017-Nov-12 21:59N 68°58' E 033°03'0 0.0
2017-Nov-12 21:27N 68°58' E 033°03'0 0.0
2017-Nov-12 20:59N 68°58' E 033°03'0 0.0
2017-Nov-12 20:27N 68°58' E 033°03'0 0.0
2017-Nov-12 19:59N 68°58' E 033°03'0 0.0
2017-Nov-12 19:26N 68°58' E 033°03'0 0.0
2017-Nov-12 18:59N 68°58' E 033°03'0 0.0
2017-Nov-12 18:28N 68°58' E 033°03'0 0.0
2017-Nov-12 17:59N 68°58' E 033°03'0 0.0
2017-Nov-12 17:29N 68°58' E 033°03'0 0.0
2017-Nov-12 17:00N 68°58' E 033°03'0 0.0
2017-Nov-12 16:29N 68°58' E 033°03'0 0.0
2017-Nov-12 15:59N 68°58' E 033°03'0 0.0
2017-Nov-12 15:29N 68°58' E 033°03'0 0.0
2017-Nov-12 14:55N 68°58' E 033°03'0 0.0
2017-Nov-12 14:28N 68°58' E 033°03'0 0.0
2017-Nov-12 13:53N 68°58' E 033°03'0 0.0
2017-Nov-12 13:30N 68°58' E 033°03'0 0.0
2017-Nov-12 12:59N 68°58' E 033°03'0 0.0
2017-Nov-12 12:19N 68°58' E 033°03'0 0.0
2017-Nov-12 11:58N 68°58' E 033°03'0 0.0
2017-Nov-12 11:28N 68°58' E 033°03'0 0.0
2017-Nov-12 10:59N 68°58' E 033°03'0 0.0
2017-Nov-12 10:30N 68°58' E 033°03'0 0.0
2017-Nov-12 09:59N 68°58' E 033°03'0 0.0
2017-Nov-12 09:28N 68°58' E 033°03'0 0.0
2017-Nov-12 08:59N 68°58' E 033°03'0 0.0
2017-Nov-12 08:29N 68°58' E 033°03'0 0.0
2017-Nov-12 07:57N 68°58' E 033°03'0 0.0
2017-Nov-12 07:29N 68°58' E 033°03'0 0.0
2017-Nov-12 06:58N 68°58' E 033°03'0 0.0
2017-Nov-12 06:30N 68°58' E 033°03'0 0.0
2017-Nov-12 05:58N 68°58' E 033°03'0 0.0
2017-Nov-12 05:26N 68°58' E 033°03'0 0.0
2017-Nov-12 04:57N 68°58' E 033°03'0 0.0
2017-Nov-12 04:27N 68°58' E 033°03'0 0.0
2017-Nov-12 03:58N 68°58' E 033°03'0 0.0
2017-Nov-12 03:29N 68°58' E 033°03'0 0.0
2017-Nov-12 03:00N 68°58' E 033°03'0 0.0
2017-Nov-12 02:26N 68°58' E 033°03'0 0.0
2017-Nov-12 02:00N 68°58' E 033°03'0 0.0
2017-Nov-12 01:28N 68°58' E 033°03'0 0.0
2017-Nov-12 01:00N 68°58' E 033°03'0 0.0
2017-Nov-12 00:23N 68°58' E 033°03'0 0.0
2017-Nov-11 23:59N 68°58' E 033°03'0 0.0
2017-Nov-11 23:28N 68°58' E 033°03'0 0.0
2017-Nov-11 22:55N 68°58' E 033°03'0 0.0
2017-Nov-11 22:23N 68°58' E 033°03'0 0.0
2017-Nov-11 21:57N 68°58' E 033°03'0 0.0
2017-Nov-11 21:27N 68°58' E 033°03'0 0.0
2017-Nov-11 20:58N 68°58' E 033°03'0 0.0
2017-Nov-11 20:30N 68°58' E 033°03'0 0.0
2017-Nov-11 19:59N 68°58' E 033°03'0 0.0
2017-Nov-11 19:29N 68°58' E 033°03'0 0.0
2017-Nov-11 19:00N 68°58' E 033°03'0 0.0
2017-Nov-11 18:28N 68°58' E 033°03'0 0.0
2017-Nov-11 17:59N 68°58' E 033°03'0 0.0
2017-Nov-11 17:30N 68°58' E 033°03'0 0.0
2017-Nov-11 16:56N 68°58' E 033°03'0 0.0
2017-Nov-11 16:24N 68°58' E 033°03'0 0.0
2017-Nov-11 16:00N 68°58' E 033°03'0 0.0
2017-Nov-11 15:30N 68°58' E 033°03'0 0.0
2017-Nov-11 14:59N 68°58' E 033°03'0 0.0
2017-Nov-11 14:26N 68°58' E 033°03'0 0.0
2017-Nov-11 13:55N 68°58' E 033°03'0 0.0
2017-Nov-11 13:30N 68°58' E 033°03'0 0.0
2017-Nov-11 12:59N 68°58' E 033°03'0 0.0
2017-Nov-11 12:29N 68°58' E 033°03'0 0.0
2017-Nov-11 11:59N 68°58' E 033°03'0 0.0
2017-Nov-11 11:28N 68°58' E 033°03'0 0.0
2017-Nov-11 10:58N 68°58' E 033°03'0 0.0
2017-Nov-11 10:29N 68°58' E 033°03'0 0.0
2017-Nov-11 09:58N 68°58' E 033°03'0 0.0
2017-Nov-11 09:26N 68°58' E 033°03'0 0.0
2017-Nov-11 09:00N 68°58' E 033°03'0 0.0
2017-Nov-11 08:25N 68°58' E 033°03'0 0.0
2017-Nov-11 07:58N 68°58' E 033°03'0 0.0
2017-Nov-11 07:28N 68°58' E 033°03'0 0.0
2017-Nov-11 07:00N 68°58' E 033°03'0 0.0
2017-Nov-11 06:25N 68°58' E 033°03'0 0.0
2017-Nov-11 05:58N 68°58' E 033°03'0 0.0
2017-Nov-11 05:27N 68°58' E 033°03'0 0.0
2017-Nov-11 05:00N 68°58' E 033°03'0 0.0
2017-Nov-11 04:28N 68°58' E 033°03'0 0.0
2017-Nov-11 04:00N 68°58' E 033°03'0 0.0
2017-Nov-11 03:29N 68°58' E 033°03'0 0.0
2017-Nov-11 02:59N 68°58' E 033°03'0 0.0
2017-Nov-11 02:30N 68°58' E 033°03'0 0.0
2017-Nov-11 01:53N 68°58' E 033°03'0 0.0
2017-Nov-11 01:29N 68°58' E 033°03'0 0.0
2017-Nov-11 00:56N 68°58' E 033°03'0 0.0
2017-Nov-11 00:29N 68°58' E 033°03'0 0.0
2017-Nov-10 23:58N 68°58' E 033°03'0 0.0
2017-Nov-10 23:27N 68°58' E 033°03'0 0.0
2017-Nov-10 22:57N 68°58' E 033°03'0 0.0
2017-Nov-10 22:28N 68°58' E 033°03'0 0.0
2017-Nov-10 21:59N 68°58' E 033°03'0 0.0
2017-Nov-10 21:29N 68°58' E 033°03'0 0.0
2017-Nov-10 20:54N 68°58' E 033°03'0 0.0
2017-Nov-10 20:30N 68°58' E 033°03'0 0.0
2017-Nov-10 19:59N 68°58' E 033°03'0 0.0
2017-Nov-10 19:27N 68°58' E 033°03'0 0.0
2017-Nov-10 18:55N 68°58' E 033°03'0 0.0
2017-Nov-10 18:30N 68°58' E 033°03'0 0.0
2017-Nov-10 18:00N 68°58' E 033°03'0 0.0
2017-Nov-10 17:26N 68°58' E 033°03'0 0.0
2017-Nov-10 16:58N 68°58' E 033°03'0 0.0
2017-Nov-10 16:29N 68°58' E 033°03'0 0.0
2017-Nov-10 16:00N 68°58' E 033°03'0 0.0
2017-Nov-10 15:26N 68°58' E 033°03'0 0.0
2017-Nov-10 14:53N 68°58' E 033°03'0 0.0
2017-Nov-10 14:29N 68°58' E 033°03'0 0.0
2017-Nov-10 13:59N 68°58' E 033°03'0 0.0
2017-Nov-10 13:21N 68°58' E 033°03'0 0.0
2017-Nov-10 12:59N 68°58' E 033°03'0 0.0
2017-Nov-10 12:25N 68°58' E 033°03'0 0.0
2017-Nov-10 11:59N 68°58' E 033°03'0 0.0
2017-Nov-10 11:28N 68°58' E 033°03'0 0.0
2017-Nov-10 10:58N 68°58' E 033°03'0 0.0
2017-Nov-10 10:25N 68°58' E 033°03'0 0.0
2017-Nov-10 09:59N 68°58' E 033°03'0 0.0
2017-Nov-10 09:30N 68°58' E 033°03'0 0.0
2017-Nov-10 08:59N 68°58' E 033°03'0 0.0
2017-Nov-10 08:29N 68°58' E 033°03'0 0.0
2017-Nov-10 07:59N 68°58' E 033°03'0 0.0
2017-Nov-10 07:30N 68°58' E 033°03'0 0.0
2017-Nov-10 06:58N 68°58' E 033°03'0 0.0
2017-Nov-10 06:26N 68°58' E 033°03'0 0.0
2017-Nov-10 06:00N 68°58' E 033°03'0 0.0
2017-Nov-10 05:30N 68°58' E 033°03'0 0.0
2017-Nov-10 05:00N 68°58' E 033°03'0 0.0
2017-Nov-10 04:27N 68°58' E 033°03'0 0.0
2017-Nov-10 04:00N 68°58' E 033°03'0 0.0
2017-Nov-10 03:28N 68°58' E 033°03'0 0.0
2017-Nov-10 02:59N 68°58' E 033°03'0 0.0
2017-Nov-10 02:29N 68°58' E 033°03'0 0.0
2017-Nov-10 01:58N 68°58' E 033°03'0 0.0
2017-Nov-10 01:30N 68°58' E 033°03'0 0.0
2017-Nov-09 22:13N 68°58' E 033°03'0 0.0
2017-Nov-09 17:45N 68°58' E 033°03'0 0.0
2017-Nov-09 15:42N 68°58' E 033°03'0 0.0
2017-Nov-09 13:25N 68°58' E 033°03'0 0.0
2017-Nov-09 11:46N 68°58' E 033°03'0 0.0
2017-Nov-09 11:25N 68°58' E 033°03'0 0.0
2017-Nov-09 08:49N 68°58' E 033°03'0 0.0
2017-Nov-09 08:27N 68°58' E 033°03'0 0.2
2017-Nov-09 07:59N 68°58' E 033°03'0 1.0
2017-Nov-09 07:31N 68°58' E 033°02'1 2.6
2017-Nov-09 07:00N 68°56' E 033°01'  

Dump ship's entire track history